createdAt,value
2024-01-16T00:00:09.383Z,95815.25
2024-01-16T00:01:43.033Z,95821.53
2024-01-16T00:03:14.647Z,95825.44
2024-01-16T00:04:47.665Z,95832.53
2024-01-16T00:06:20.016Z,95820.81
2024-01-16T00:07:51.640Z,95816.09
2024-01-16T00:09:23.292Z,95822.09
2024-01-16T00:10:54.968Z,95823.53
2024-01-16T00:12:26.620Z,95819.97
2024-01-16T00:13:58.269Z,95826.31
2024-01-16T00:15:29.888Z,95831.81
2024-01-16T00:17:01.887Z,95841.06
2024-01-16T00:18:33.849Z,95833.19
2024-01-16T00:20:08.149Z,95834.59
2024-01-16T00:21:40.661Z,95830.38
2024-01-16T00:23:12.440Z,95834.03
2024-01-16T00:24:44.108Z,95840.44
2024-01-16T00:26:21.413Z,95845.59
2024-01-16T00:27:53.075Z,95843.31
2024-01-16T00:29:24.929Z,95842.78
2024-01-16T00:30:56.603Z,95851.75
2024-01-16T00:32:28.304Z,95834.59
2024-01-16T00:34:00.039Z,95851.16
2024-01-16T00:35:33.225Z,95849.16
2024-01-16T00:37:05.076Z,95845.72
2024-01-16T00:38:36.736Z,95844.47
2024-01-16T00:40:10.058Z,95844.72
2024-01-16T00:41:41.908Z,95844.22
2024-01-16T00:43:13.986Z,95859.16
2024-01-16T00:44:45.654Z,95860.41
2024-01-16T00:46:17.271Z,95861.88
2024-01-16T00:47:49.098Z,95861.44
2024-01-16T00:49:22.060Z,95854.00
2024-01-16T00:50:55.557Z,95848.66
2024-01-16T00:52:27.504Z,95858.56
2024-01-16T00:53:59.213Z,95857.66
2024-01-16T00:55:30.867Z,95850.09
2024-01-16T00:57:02.546Z,95853.94
2024-01-16T00:58:34.173Z,95863.91
2024-01-16T01:00:07.372Z,95863.56
2024-01-16T01:01:39.032Z,95868.56
2024-01-16T01:03:10.883Z,95865.22
2024-01-16T01:04:43.988Z,95867.63
2024-01-16T01:06:17.214Z,95869.78
2024-01-16T01:07:50.106Z,95868.22
2024-01-16T01:09:22.016Z,95870.00
2024-01-16T01:10:53.729Z,95874.38
2024-01-16T01:12:25.404Z,95873.28
2024-01-16T01:13:57.239Z,95865.72
2024-01-16T01:15:28.873Z,95871.16
2024-01-16T01:17:00.646Z,95866.22
2024-01-16T01:18:32.373Z,95867.31
2024-01-16T01:20:04.788Z,95868.81
2024-01-16T01:21:37.892Z,95867.25
2024-01-16T01:23:10.105Z,95873.06
2024-01-16T01:24:41.780Z,95875.66
2024-01-16T01:26:19.160Z,95871.44
2024-01-16T01:27:50.909Z,95876.16
2024-01-16T01:29:22.713Z,95878.50
2024-01-16T01:30:54.359Z,95882.63
2024-01-16T01:32:28.075Z,95876.25
2024-01-16T01:34:00.246Z,95877.31
2024-01-16T01:35:32.145Z,95876.53
2024-01-16T01:37:05.309Z,95887.22
2024-01-16T01:38:36.976Z,95877.59
2024-01-16T01:40:09.924Z,95877.66
2024-01-16T01:41:42.393Z,95875.09
2024-01-16T01:43:21.155Z,95871.28
2024-01-16T01:44:52.972Z,95876.50
2024-01-16T01:46:24.626Z,95870.91
2024-01-16T01:47:56.295Z,95878.13
2024-01-16T01:49:28.049Z,95879.78
2024-01-16T01:51:00.343Z,95873.78
2024-01-16T01:52:33.312Z,95877.34
2024-01-16T01:54:05.075Z,95880.88
2024-01-16T01:55:36.676Z,95877.44
2024-01-16T01:57:08.565Z,95873.72
2024-01-16T01:58:40.307Z,95873.44
2024-01-16T02:00:12.948Z,95877.38
2024-01-16T02:01:44.577Z,95879.50
2024-01-16T02:03:16.299Z,95872.44
2024-01-16T02:04:48.412Z,95876.38
2024-01-16T02:06:20.152Z,95873.88
2024-01-16T02:07:53.522Z,95880.16
2024-01-16T02:09:25.202Z,95875.66
2024-01-16T02:10:56.806Z,95881.38
2024-01-16T02:12:28.486Z,95882.44
2024-01-16T02:14:00.101Z,95879.06
2024-01-16T02:15:31.840Z,95878.34
2024-01-16T02:17:03.672Z,95885.41
2024-01-16T02:18:35.336Z,95891.94
2024-01-16T02:20:08.568Z,95878.38
2024-01-16T02:21:40.645Z,95879.44
2024-01-16T02:23:14.433Z,95867.16
2024-01-16T02:24:47.453Z,95866.59
2024-01-16T02:26:19.198Z,95863.75
2024-01-16T02:27:50.877Z,95864.06
2024-01-16T02:29:22.634Z,95865.53
2024-01-16T02:30:54.385Z,95866.53
2024-01-16T02:32:26.234Z,95868.31
2024-01-16T02:33:58.034Z,95864.09
2024-01-16T02:35:29.748Z,95866.75
2024-01-16T02:37:01.369Z,95863.66
2024-01-16T02:38:33.146Z,95863.94
2024-01-16T02:40:07.440Z,95866.09
2024-01-16T02:41:39.361Z,95872.63
2024-01-16T02:43:11.201Z,95873.97
2024-01-16T02:44:42.878Z,95877.63
2024-01-16T02:46:14.615Z,95870.91
2024-01-16T02:47:46.481Z,95872.63
2024-01-16T02:49:18.222Z,95877.28
2024-01-16T02:50:50.144Z,95873.25
2024-01-16T02:52:21.871Z,95876.47
2024-01-16T02:53:53.522Z,95873.13
2024-01-16T02:55:26.551Z,95870.69
2024-01-16T02:56:58.922Z,95872.19
2024-01-16T02:58:31.880Z,95873.00
2024-01-16T03:00:04.403Z,95869.63
2024-01-16T03:01:36.040Z,95874.34
2024-01-16T03:03:09.254Z,95881.03
2024-01-16T03:04:40.959Z,95879.72
2024-01-16T03:06:22.808Z,95866.84
2024-01-16T03:07:54.547Z,95876.78
2024-01-16T03:09:26.228Z,95883.34
2024-01-16T03:10:59.278Z,95881.03
2024-01-16T03:12:30.869Z,95877.63
2024-01-16T03:14:02.717Z,95875.56
2024-01-16T03:15:34.400Z,95880.84
2024-01-16T03:17:07.208Z,95873.34
2024-01-16T03:18:39.108Z,95877.75
2024-01-16T03:20:11.733Z,95879.72
2024-01-16T03:21:43.902Z,95869.28
2024-01-16T03:23:15.585Z,95876.16
2024-01-16T03:24:47.337Z,95874.22
2024-01-16T03:26:20.452Z,95871.03
2024-01-16T03:27:52.108Z,95867.91
2024-01-16T03:29:23.926Z,95870.34
2024-01-16T03:30:55.759Z,95869.97
2024-01-16T03:32:27.590Z,95869.03
2024-01-16T03:33:59.222Z,95867.81
2024-01-16T03:35:31.038Z,95871.78
2024-01-16T03:37:02.835Z,95866.91
2024-01-16T03:38:35.699Z,95877.34
2024-01-16T03:40:08.637Z,95879.44
2024-01-16T03:41:41.753Z,95873.97
2024-01-16T03:43:13.408Z,95873.09
2024-01-16T03:44:45.231Z,95870.47
2024-01-16T03:46:16.897Z,95864.38
2024-01-16T03:47:48.661Z,95863.69
2024-01-16T03:49:20.456Z,95861.91
2024-01-16T03:50:52.185Z,95862.91
2024-01-16T03:52:24.070Z,95861.81
2024-01-16T03:53:55.796Z,95863.47
2024-01-16T03:55:27.628Z,95867.28
2024-01-16T03:57:00.583Z,95856.91
2024-01-16T03:58:32.167Z,95858.97
2024-01-16T04:00:06.420Z,95855.91
2024-01-16T04:01:38.484Z,95855.19
2024-01-16T04:03:10.152Z,95853.16
2024-01-16T04:04:41.728Z,95858.19
2024-01-16T04:06:17.649Z,95860.34
2024-01-16T04:07:49.361Z,95854.38
2024-01-16T04:09:21.038Z,95853.84
2024-01-16T04:10:52.686Z,95856.72
2024-01-16T04:12:25.662Z,95856.69
2024-01-16T04:13:57.717Z,95863.16
2024-01-16T04:15:29.660Z,95852.47
2024-01-16T04:17:01.279Z,95846.94
2024-01-16T04:18:36.360Z,95847.16
2024-01-16T04:20:08.915Z,95843.97
2024-01-16T04:21:40.557Z,95849.75
2024-01-16T04:23:12.906Z,95852.84
2024-01-16T04:24:45.352Z,95854.91
2024-01-16T04:26:17.037Z,95849.09
2024-01-16T04:27:50.034Z,95845.53
2024-01-16T04:29:21.650Z,95850.69
2024-01-16T04:30:53.583Z,95847.34
2024-01-16T04:32:25.484Z,95842.41
2024-01-16T04:33:57.205Z,95848.47
2024-01-16T04:35:28.915Z,95841.94
2024-01-16T04:37:00.568Z,95837.41
2024-01-16T04:38:32.501Z,95842.34
2024-01-16T04:40:06.356Z,95840.81
2024-01-16T04:41:38.042Z,95849.09
2024-01-16T04:43:11.035Z,95851.16
2024-01-16T04:44:42.749Z,95850.66
2024-01-16T04:46:15.397Z,95850.13
2024-01-16T04:47:47.097Z,95836.75
2024-01-16T04:49:19.365Z,95841.94
2024-01-16T04:50:51.106Z,95855.50
2024-01-16T04:52:22.848Z,95848.44
2024-01-16T04:53:54.482Z,95842.94
2024-01-16T04:55:26.634Z,95844.78
2024-01-16T04:56:58.261Z,95847.94
2024-01-16T04:58:31.202Z,95844.28
2024-01-16T05:00:02.917Z,95844.22
2024-01-16T05:01:34.640Z,95840.53
2024-01-16T05:03:06.889Z,95841.81
2024-01-16T05:04:39.284Z,95849.94
2024-01-16T05:06:14.050Z,95850.44
2024-01-16T05:07:46.437Z,95852.94
2024-01-16T05:09:18.100Z,95842.78
2024-01-16T05:10:49.835Z,95837.03
2024-01-16T05:12:23.692Z,95842.22
2024-01-16T05:13:59.198Z,95841.00
2024-01-16T05:15:30.868Z,95848.91
2024-01-16T05:17:02.481Z,95838.97
2024-01-16T05:18:34.862Z,95839.31
2024-01-16T05:20:07.865Z,95835.53
2024-01-16T05:21:41.700Z,95829.25
2024-01-16T05:23:13.461Z,95831.16
2024-01-16T05:24:45.134Z,95826.97
2024-01-16T05:26:16.902Z,95815.97
2024-01-16T05:27:48.534Z,95814.13
2024-01-16T05:29:21.642Z,95810.28
2024-01-16T05:30:53.327Z,95814.78
2024-01-16T05:32:26.014Z,95812.44
2024-01-16T05:33:59.156Z,95804.50
2024-01-16T05:35:31.232Z,95805.59
2024-01-16T05:37:02.935Z,95805.88
2024-01-16T05:38:35.244Z,95804.66
2024-01-16T05:40:08.939Z,95802.53
2024-01-16T05:41:41.436Z,95794.44
2024-01-16T05:43:13.082Z,95803.69
2024-01-16T05:44:46.136Z,95796.19
2024-01-16T05:46:19.159Z,95805.06
2024-01-16T05:47:50.937Z,95798.75
2024-01-16T05:49:22.718Z,95797.69
2024-01-16T05:50:54.499Z,95795.22
2024-01-16T05:52:26.200Z,95792.69
2024-01-16T05:53:57.829Z,95791.16
2024-01-16T05:55:30.078Z,95789.31
2024-01-16T05:57:01.714Z,95786.88
2024-01-16T05:58:36.901Z,95785.81
2024-01-16T06:00:12.148Z,95782.88
2024-01-16T06:01:43.801Z,95785.16
2024-01-16T06:03:15.508Z,95779.47
2024-01-16T06:04:47.409Z,95783.31
2024-01-16T06:06:20.421Z,95778.16
2024-01-16T06:07:53.890Z,95785.09
2024-01-16T06:09:25.529Z,95779.59
2024-01-16T06:10:57.156Z,95784.13
2024-01-16T06:12:28.860Z,95779.53
2024-01-16T06:14:00.774Z,95783.47
2024-01-16T06:15:34.232Z,95786.81
2024-01-16T06:17:09.396Z,95786.88
2024-01-16T06:18:41.064Z,95789.25
2024-01-16T06:20:12.911Z,95787.47
2024-01-16T06:21:44.561Z,95794.97
2024-01-16T06:23:16.180Z,95787.59
2024-01-16T06:24:48.142Z,95790.97
2024-01-16T06:26:19.860Z,95788.16
2024-01-16T06:27:51.502Z,95789.56
2024-01-16T06:29:31.664Z,95791.91
2024-01-16T06:31:08.289Z,95785.09
2024-01-16T06:32:40.331Z,95791.22
2024-01-16T06:34:12.366Z,95774.56
2024-01-16T06:35:44.038Z,95781.31
2024-01-16T06:37:15.645Z,95775.25
2024-01-16T06:38:47.516Z,95785.78
2024-01-16T06:40:19.127Z,95784.03
2024-01-16T06:41:50.976Z,95783.41
2024-01-16T06:43:22.632Z,95776.56
2024-01-16T06:44:54.298Z,95772.81
2024-01-16T06:46:27.241Z,95776.31
2024-01-16T06:47:59.001Z,95786.06
2024-01-16T06:49:30.704Z,95784.25
2024-01-16T06:51:02.415Z,95782.22
2024-01-16T06:52:34.045Z,95779.34
2024-01-16T06:54:05.868Z,95784.34
2024-01-16T06:55:37.668Z,95780.88
2024-01-16T06:57:09.309Z,95778.16
2024-01-16T06:58:41.046Z,95782.34
2024-01-16T07:00:15.446Z,95779.00
2024-01-16T07:01:48.479Z,95781.69
2024-01-16T07:03:20.129Z,95783.06
2024-01-16T07:04:51.817Z,95786.00
2024-01-16T07:06:23.533Z,95785.91
2024-01-16T07:07:55.798Z,95778.16
2024-01-16T07:09:28.299Z,95781.78
2024-01-16T07:10:59.895Z,95787.25
2024-01-16T07:12:31.605Z,95778.53
2024-01-16T07:14:04.393Z,95783.66
2024-01-16T07:15:36.062Z,95779.88
2024-01-16T07:17:09.180Z,95786.16
2024-01-16T07:18:42.941Z,95783.56
2024-01-16T07:20:16.179Z,95779.13
2024-01-16T07:21:47.884Z,95779.16
2024-01-16T07:23:19.495Z,95774.94
2024-01-16T07:24:53.683Z,95771.81
2024-01-16T07:26:25.394Z,95774.66
2024-01-16T07:27:57.044Z,95768.97
2024-01-16T07:29:28.773Z,95771.66
2024-01-16T07:31:00.562Z,95768.94
2024-01-16T07:32:33.736Z,95767.59
2024-01-16T07:34:05.581Z,95769.78
2024-01-16T07:35:37.387Z,95771.88
2024-01-16T07:37:08.999Z,95776.34
2024-01-16T07:38:40.692Z,95776.84
2024-01-16T07:40:13.574Z,95768.34
2024-01-16T07:41:45.263Z,95761.06
2024-01-16T07:43:16.984Z,95764.72
2024-01-16T07:44:48.880Z,95759.22
2024-01-16T07:46:20.566Z,95767.28
2024-01-16T07:47:53.600Z,95758.47
2024-01-16T07:49:25.431Z,95760.50
2024-01-16T07:50:57.276Z,95749.56
2024-01-16T07:52:29.332Z,95758.66
2024-01-16T07:54:06.897Z,95758.06
2024-01-16T07:55:38.498Z,95753.06
2024-01-16T07:57:10.204Z,95763.75
2024-01-16T07:58:41.888Z,95766.84
2024-01-16T08:00:14.046Z,95766.78
2024-01-16T08:01:45.649Z,95748.50
2024-01-16T08:03:19.113Z,95754.25
2024-01-16T08:04:50.845Z,95761.50
2024-01-16T08:06:22.882Z,95763.13
2024-01-16T08:07:54.628Z,95771.53
2024-01-16T08:09:26.304Z,95765.44
2024-01-16T08:10:58.272Z,95772.97
2024-01-16T08:12:29.985Z,95769.16
2024-01-16T08:14:01.633Z,95768.84
2024-01-16T08:15:33.464Z,95766.28
2024-01-16T08:17:05.203Z,95766.22
2024-01-16T08:18:38.292Z,95760.44
2024-01-16T08:20:11.513Z,95760.94
2024-01-16T08:21:43.358Z,95753.22
2024-01-16T08:23:15.171Z,95760.91
2024-01-16T08:24:46.829Z,95753.09
2024-01-16T08:26:18.514Z,95751.50
2024-01-16T08:27:50.160Z,95746.78
2024-01-16T08:29:21.886Z,95743.69
2024-01-16T08:30:53.598Z,95748.34
2024-01-16T08:32:25.430Z,95742.53
2024-01-16T08:33:58.720Z,95750.59
2024-01-16T08:35:30.598Z,95744.81
2024-01-16T08:37:02.347Z,95749.47
2024-01-16T08:38:34.055Z,95741.91
2024-01-16T08:40:06.975Z,95749.97
2024-01-16T08:41:38.686Z,95747.88
2024-01-16T08:43:10.409Z,95743.66
2024-01-16T08:44:42.123Z,95744.88
2024-01-16T08:46:13.796Z,95751.66
2024-01-16T08:47:45.601Z,95749.09
2024-01-16T08:49:21.291Z,95743.44
2024-01-16T08:50:53.407Z,95746.09
2024-01-16T08:52:25.116Z,95745.44
2024-01-16T08:53:56.819Z,95742.78
2024-01-16T08:55:28.523Z,95749.22
2024-01-16T08:57:00.172Z,95740.31
2024-01-16T08:58:33.932Z,95745.53
2024-01-16T09:00:06.669Z,95743.16
2024-01-16T09:01:38.374Z,95742.81
2024-01-16T09:03:10.445Z,95740.38
2024-01-16T09:04:43.461Z,95743.69
2024-01-16T09:06:15.365Z,95744.13
2024-01-16T09:07:47.102Z,95736.72
2024-01-16T09:09:18.891Z,95736.38
2024-01-16T09:10:51.733Z,95733.13
2024-01-16T09:12:23.346Z,95726.34
2024-01-16T09:13:55.020Z,95733.59
2024-01-16T09:15:26.697Z,95726.81
2024-01-16T09:16:58.355Z,95735.16
2024-01-16T09:18:30.086Z,95728.09
2024-01-16T09:20:03.242Z,95731.69
2024-01-16T09:21:34.834Z,95733.03
2024-01-16T09:23:06.520Z,95734.53
2024-01-16T09:24:38.223Z,95731.69
2024-01-16T09:26:09.825Z,95729.66
2024-01-16T09:27:41.511Z,95733.81
2024-01-16T09:29:13.193Z,95733.47
2024-01-16T09:30:44.938Z,95740.88
2024-01-16T09:32:16.722Z,95740.59
2024-01-16T09:33:48.453Z,95733.75
2024-01-16T09:35:21.675Z,95732.56
2024-01-16T09:36:53.420Z,95729.03
2024-01-16T09:38:25.161Z,95734.19
2024-01-16T09:39:56.879Z,95725.34
2024-01-16T09:41:28.676Z,95731.44
2024-01-16T09:43:00.383Z,95734.69
2024-01-16T09:44:31.985Z,95735.41
2024-01-16T09:46:03.946Z,95725.84
2024-01-16T09:47:35.788Z,95735.25
2024-01-16T09:49:08.141Z,95740.84
2024-01-16T09:50:41.329Z,95728.19
2024-01-16T09:52:12.944Z,95725.56
2024-01-16T09:53:44.590Z,95731.28
2024-01-16T09:55:16.491Z,95733.31
2024-01-16T09:56:49.369Z,95727.13
2024-01-16T09:58:24.825Z,95721.31
2024-01-16T09:59:57.773Z,95729.09
2024-01-16T10:01:29.583Z,95726.25
2024-01-16T10:03:01.584Z,95723.72
2024-01-16T10:04:33.636Z,95721.59
2024-01-16T10:06:07.435Z,95723.81
2024-01-16T10:07:39.764Z,95725.56
2024-01-16T10:09:13.442Z,95720.59
2024-01-16T10:10:49.048Z,95711.22
2024-01-16T10:12:22.078Z,95715.22
2024-01-16T10:13:53.830Z,95704.63
2024-01-16T10:15:25.488Z,95703.97
2024-01-16T10:16:59.163Z,95707.03
2024-01-16T10:18:31.619Z,95710.16
2024-01-16T10:20:05.952Z,95705.03
2024-01-16T10:21:39.108Z,95704.88
2024-01-16T10:23:10.861Z,95699.44
2024-01-16T10:24:42.516Z,95704.75
2024-01-16T10:26:15.254Z,95697.78
2024-01-16T10:27:46.912Z,95690.78
2024-01-16T10:29:18.593Z,95683.06
2024-01-16T10:30:52.742Z,95684.69
2024-01-16T10:32:31.126Z,95685.25
2024-01-16T10:34:05.213Z,95686.31
2024-01-16T10:35:36.918Z,95685.41
2024-01-16T10:37:10.021Z,95676.28
2024-01-16T10:38:42.214Z,95679.22
2024-01-16T10:40:17.580Z,95676.34
2024-01-16T10:41:55.734Z,95683.03
2024-01-16T10:43:27.411Z,95675.75
2024-01-16T10:44:59.017Z,95678.38
2024-01-16T10:46:30.715Z,95682.34
2024-01-16T10:48:03.313Z,95682.19
2024-01-16T10:49:42.919Z,95676.16
2024-01-16T10:51:18.179Z,95675.16
2024-01-16T10:52:51.227Z,95665.47
2024-01-16T10:54:23.227Z,95670.81
2024-01-16T10:55:54.980Z,95668.28
2024-01-16T10:57:26.600Z,95672.16
2024-01-16T10:59:01.080Z,95678.84
2024-01-16T11:00:33.169Z,95678.69
2024-01-16T11:02:05.340Z,95676.75
2024-01-16T11:03:39.354Z,95671.72
2024-01-16T11:05:12.439Z,95679.09
2024-01-16T11:06:44.176Z,95679.66
2024-01-16T11:08:18.220Z,95671.91
2024-01-16T11:09:50.326Z,95676.16
2024-01-16T11:11:21.945Z,95673.75
2024-01-16T11:12:53.825Z,95675.59
2024-01-16T11:14:26.436Z,95677.66
2024-01-16T11:15:58.272Z,95676.56
2024-01-16T11:17:30.357Z,95682.19
2024-01-16T11:19:18.455Z,95681.41
2024-01-16T11:21:04.590Z,95675.50
2024-01-16T11:22:40.087Z,95664.25
2024-01-16T11:24:13.326Z,95659.13
2024-01-16T11:25:45.023Z,95659.66
2024-01-16T11:27:23.554Z,95664.22
2024-01-16T11:28:57.964Z,95659.13
2024-01-16T11:30:34.946Z,95660.94
2024-01-16T11:32:18.149Z,95666.09
2024-01-16T11:34:00.811Z,95652.03
2024-01-16T11:35:33.168Z,95653.28
2024-01-16T11:37:05.503Z,95652.50
2024-01-16T11:38:37.546Z,95659.13
2024-01-16T11:40:24.184Z,95651.34
2024-01-16T11:41:56.702Z,95647.16
2024-01-16T11:43:40.932Z,95649.19
2024-01-16T11:45:31.096Z,95653.94
2024-01-16T11:47:03.999Z,95645.03
2024-01-16T11:48:36.452Z,95649.19
2024-01-16T11:50:13.036Z,95640.63
2024-01-16T11:51:44.742Z,95644.03
2024-01-16T11:53:38.356Z,95632.47
2024-01-16T11:55:34.161Z,95630.34
2024-01-16T11:57:37.814Z,95632.19
2024-01-16T11:59:27.534Z,95622.66
2024-01-16T12:00:59.254Z,95631.41
2024-01-16T12:02:40.488Z,95617.03
2024-01-16T12:04:15.388Z,95622.59
2024-01-16T12:05:56.355Z,95610.06
2024-01-16T12:07:36.982Z,95616.38
2024-01-16T12:09:15.400Z,95606.78
2024-01-16T12:10:51.817Z,95599.88
2024-01-16T12:12:23.600Z,95609.59
2024-01-16T12:14:02.409Z,95606.00
2024-01-16T12:15:34.524Z,95597.97
2024-01-16T12:17:13.029Z,95606.31
2024-01-16T12:18:48.298Z,95594.56
2024-01-16T12:20:23.294Z,95597.78
2024-01-16T12:21:55.331Z,95591.75
2024-01-16T12:23:27.238Z,95596.00
2024-01-16T12:25:00.281Z,95592.72
2024-01-16T12:26:34.224Z,95586.72
2024-01-16T12:28:07.596Z,95588.44
2024-01-16T12:29:42.601Z,95588.91
2024-01-16T12:31:19.335Z,95592.31
2024-01-16T12:32:58.733Z,95581.44
2024-01-16T12:34:49.878Z,95579.66
2024-01-16T12:36:22.360Z,95569.94
2024-01-16T12:38:01.962Z,95565.59
2024-01-16T12:39:33.838Z,95566.38
2024-01-16T12:41:07.115Z,95576.66
2024-01-16T12:42:40.318Z,95570.41
2024-01-16T12:44:16.435Z,95569.44
2024-01-16T12:45:56.361Z,95556.69
2024-01-16T12:47:28.276Z,95567.94
2024-01-16T12:49:06.142Z,95557.50
2024-01-16T12:50:38.543Z,95555.66
2024-01-16T12:52:20.034Z,95553.34
2024-01-16T12:53:51.806Z,95555.16
2024-01-16T12:55:23.672Z,95548.88
2024-01-16T12:56:59.829Z,95546.81
2024-01-16T12:58:35.919Z,95544.75
2024-01-16T13:00:22.872Z,95551.66
2024-01-16T13:01:54.782Z,95536.97
2024-01-16T13:03:30.348Z,95538.81
2024-01-16T13:05:04.649Z,95529.88
2024-01-16T13:06:39.727Z,95523.13
2024-01-16T13:08:18.436Z,95529.09
2024-01-16T13:09:50.383Z,95541.03
2024-01-16T13:11:33.041Z,95538.38
2024-01-16T13:13:18.137Z,95543.06
2024-01-16T13:14:54.619Z,95537.25
2024-01-16T13:16:27.776Z,95541.31
2024-01-16T13:18:01.355Z,95540.84
2024-01-16T13:19:34.790Z,95541.66
2024-01-16T13:21:06.932Z,95534.75
2024-01-16T13:22:44.750Z,95525.09
2024-01-16T13:24:22.819Z,95531.47
2024-01-16T13:25:56.895Z,95518.50
2024-01-16T13:27:30.553Z,95518.97
2024-01-16T13:29:02.524Z,95521.13
2024-01-16T13:30:44.024Z,95516.63
2024-01-16T13:32:19.458Z,95516.91
2024-01-16T13:33:51.685Z,95510.91
2024-01-16T13:35:24.239Z,95514.78
2024-01-16T13:37:09.137Z,95515.09
2024-01-16T13:38:47.573Z,95506.88
2024-01-16T13:40:21.510Z,95504.91
2024-01-16T13:41:54.402Z,95507.66
2024-01-16T13:43:26.463Z,95507.41
2024-01-16T13:44:58.455Z,95502.16
2024-01-16T13:46:48.951Z,95500.16
2024-01-16T13:48:23.432Z,95501.69
2024-01-16T13:49:55.188Z,95496.31
2024-01-16T13:51:28.757Z,95496.63
2024-01-16T13:53:00.642Z,95496.13
2024-01-16T13:54:34.736Z,95488.25
2024-01-16T13:56:06.615Z,95495.34
2024-01-16T13:57:38.632Z,95491.69
2024-01-16T13:59:11.471Z,95490.59
2024-01-16T14:00:43.652Z,95489.66
2024-01-16T14:02:17.177Z,95494.94
2024-01-16T14:03:49.604Z,95484.00
2024-01-16T14:05:22.157Z,95490.78
2024-01-16T14:07:09.708Z,95488.28
2024-01-16T14:08:44.739Z,95493.00
2024-01-16T14:10:16.639Z,95496.88
2024-01-16T14:11:48.613Z,95499.06
2024-01-16T14:13:20.767Z,95493.47
2024-01-16T14:14:53.002Z,95493.59
2024-01-16T14:16:37.302Z,95497.78
2024-01-16T14:18:18.008Z,95487.94
2024-01-16T14:19:49.865Z,95488.06
2024-01-16T14:21:21.871Z,95481.56
2024-01-16T14:22:53.698Z,95483.81
2024-01-16T14:24:25.350Z,95473.03
2024-01-16T14:25:57.846Z,95489.47
2024-01-16T14:27:31.005Z,95483.41
2024-01-16T14:29:02.987Z,95491.03
2024-01-16T14:30:35.805Z,95485.16
2024-01-16T14:32:07.538Z,95494.19
2024-01-16T14:33:40.712Z,95485.38
2024-01-16T14:35:14.146Z,95482.31
2024-01-16T14:36:45.979Z,95490.16
2024-01-16T14:38:17.759Z,95484.28
2024-01-16T14:39:49.371Z,95482.00
2024-01-16T14:41:22.592Z,95481.09
2024-01-16T14:42:54.675Z,95478.66
2024-01-16T14:44:26.571Z,95477.81
2024-01-16T14:45:59.692Z,95478.00
2024-01-16T14:47:31.405Z,95488.31
2024-01-16T14:49:04.916Z,95487.28
2024-01-16T14:50:37.287Z,95487.75
2024-01-16T14:52:09.122Z,95497.75
2024-01-16T14:53:40.960Z,95501.19
2024-01-16T14:55:15.971Z,95488.03
2024-01-16T14:56:50.112Z,95484.97
2024-01-16T14:58:24.392Z,95495.84
2024-01-16T14:59:56.154Z,95491.69
2024-01-16T15:01:28.210Z,95492.91
2024-01-16T15:03:00.051Z,95487.59
2024-01-16T15:04:34.165Z,95496.22
2024-01-16T15:06:12.145Z,95490.81
2024-01-16T15:07:44.139Z,95492.72
2024-01-16T15:09:15.952Z,95488.72
2024-01-16T15:10:48.947Z,95487.56
2024-01-16T15:12:20.728Z,95490.66
2024-01-16T15:13:52.517Z,95496.81
2024-01-16T15:15:24.773Z,95487.63
2024-01-16T15:16:58.652Z,95490.72
2024-01-16T15:18:30.507Z,95486.69
2024-01-16T15:20:09.448Z,95491.63
2024-01-16T15:21:41.127Z,95484.09
2024-01-16T15:23:13.095Z,95480.53
2024-01-16T15:24:45.222Z,95492.34
2024-01-16T15:26:21.738Z,95484.88
2024-01-16T15:27:56.682Z,95489.31
2024-01-16T15:29:28.708Z,95496.41
2024-01-16T15:31:08.206Z,95493.78
2024-01-16T15:32:40.644Z,95494.25
2024-01-16T15:34:15.884Z,95491.53
2024-01-16T15:35:50.294Z,95486.97
2024-01-16T15:37:21.969Z,95482.66
2024-01-16T15:38:53.753Z,95488.31
2024-01-16T15:40:25.615Z,95484.19
2024-01-16T15:41:57.320Z,95483.78
2024-01-16T15:43:29.088Z,95485.94
2024-01-16T15:45:01.120Z,95484.13
2024-01-16T15:46:33.010Z,95482.13
2024-01-16T15:48:05.545Z,95484.09
2024-01-16T15:49:38.329Z,95489.75
2024-01-16T15:51:11.977Z,95489.16
2024-01-16T15:52:43.721Z,95496.59
2024-01-16T15:54:15.613Z,95497.31
2024-01-16T15:55:47.777Z,95497.56
2024-01-16T15:57:19.823Z,95502.94
2024-01-16T15:58:51.506Z,95498.81
2024-01-16T16:00:24.476Z,95508.28
2024-01-16T16:01:56.256Z,95502.16
2024-01-16T16:03:28.224Z,95500.38
2024-01-16T16:04:59.927Z,95497.91
2024-01-16T16:06:36.708Z,95486.72
2024-01-16T16:08:08.425Z,95488.44
2024-01-16T16:09:41.419Z,95494.72
2024-01-16T16:11:13.198Z,95496.03
2024-01-16T16:12:44.985Z,95496.91
2024-01-16T16:14:17.240Z,95495.63
2024-01-16T16:15:52.963Z,95499.25
2024-01-16T16:17:25.334Z,95498.66
2024-01-16T16:18:57.114Z,95500.97
2024-01-16T16:20:28.968Z,95498.47
2024-01-16T16:22:01.997Z,95500.72
2024-01-16T16:23:33.694Z,95510.53
2024-01-16T16:25:06.567Z,95506.03
2024-01-16T16:26:39.418Z,95514.31
2024-01-16T16:28:11.045Z,95516.31
2024-01-16T16:29:42.708Z,95514.28
2024-01-16T16:31:14.491Z,95526.78
2024-01-16T16:32:46.318Z,95528.28
2024-01-16T16:34:19.427Z,95520.63
2024-01-16T16:35:51.255Z,95527.03
2024-01-16T16:37:24.523Z,95529.91
2024-01-16T16:38:58.207Z,95530.50
2024-01-16T16:40:29.913Z,95534.00
2024-01-16T16:42:01.981Z,95529.72
2024-01-16T16:43:33.832Z,95527.88
2024-01-16T16:45:07.664Z,95533.78
2024-01-16T16:46:39.833Z,95531.56
2024-01-16T16:48:11.597Z,95521.66
2024-01-16T16:49:43.379Z,95532.50
2024-01-16T16:51:17.108Z,95530.09
2024-01-16T16:52:50.139Z,95530.28
2024-01-16T16:54:21.872Z,95544.94
2024-01-16T16:55:53.625Z,95527.41
2024-01-16T16:57:25.399Z,95540.56
2024-01-16T16:58:57.008Z,95547.13
2024-01-16T17:00:28.870Z,95540.63
2024-01-16T17:02:00.567Z,95542.94
2024-01-16T17:03:35.271Z,95538.03
2024-01-16T17:05:08.844Z,95545.97
2024-01-16T17:06:40.838Z,95543.25
2024-01-16T17:08:14.217Z,95542.38
2024-01-16T17:09:46.042Z,95546.03
2024-01-16T17:11:17.780Z,95541.69
2024-01-16T17:12:49.508Z,95542.97
2024-01-16T17:14:21.142Z,95533.34
2024-01-16T17:15:52.881Z,95539.38
2024-01-16T17:17:24.859Z,95538.78
2024-01-16T17:18:56.986Z,95541.00
2024-01-16T17:20:30.105Z,95535.97
2024-01-16T17:22:03.956Z,95533.69
2024-01-16T17:23:37.840Z,95533.94
2024-01-16T17:25:09.667Z,95531.94
2024-01-16T17:26:42.788Z,95526.22
2024-01-16T17:28:15.794Z,95519.16
2024-01-16T17:29:47.540Z,95520.44
2024-01-16T17:31:19.156Z,95516.94
2024-01-16T17:32:50.912Z,95511.78
2024-01-16T17:34:24.154Z,95520.28
2024-01-16T17:36:04.108Z,95506.31
2024-01-16T17:37:37.416Z,95509.84
2024-01-16T17:39:11.198Z,95500.28
2024-01-16T17:40:43.115Z,95502.31
2024-01-16T17:42:14.747Z,95505.91
2024-01-16T17:43:46.785Z,95509.00
2024-01-16T17:45:18.560Z,95507.94
2024-01-16T17:46:50.176Z,95506.97
2024-01-16T17:48:22.216Z,95505.50
2024-01-16T17:49:54.298Z,95511.97
2024-01-16T17:51:26.528Z,95506.44
2024-01-16T17:53:00.226Z,95506.16
2024-01-16T17:54:33.379Z,95517.53
2024-01-16T17:56:05.507Z,95505.41
2024-01-16T17:57:37.155Z,95512.00
2024-01-16T17:59:08.919Z,95502.84
2024-01-16T18:00:41.240Z,95507.25
2024-01-16T18:02:13.004Z,95496.50
2024-01-16T18:03:48.871Z,95509.97
2024-01-16T18:05:20.966Z,95508.38
2024-01-16T18:06:53.107Z,95508.75
2024-01-16T18:08:24.841Z,95499.56
2024-01-16T18:09:58.072Z,95506.72
2024-01-16T18:11:29.698Z,95501.63
2024-01-16T18:13:03.141Z,95507.84